90FL weather

Paxton Airport
Okeechobee, Florida, United States

Public forecast

Using degrees Fahrenheit for public forecast. Weather courtesy of forecast.io.

Closest aviation weather report (METAR) to Paxton Airport

Closest report is Okeechobee County Airport, 7.6 nm (14.0 km) SW. Retrieved 2019/10/22 08:35 UTC (0 seconds ago):

KOBE 220835Z AUTO 00000KT 10SM BKN044 BKN065 OVC090 25/23 A3000 RMK AO2

Closest aviation forecast (TAF) to Paxton Airport

Closest forecast is St Lucie County International Airport, 22.4 nm (41.5 km) ENE. Retrieved 2019/10/22 06:36 UTC (2 hours ago):

TAF KFPR 220534Z 2206/2306 18003KT P6SM BKN070 FM221400 22005KT P6SM FEW030 SCT250 FM221800 16008KT P6SM VCSH SCT035 BKN100 FM230000 26003KT P6SM SCT040 SCT120 BKN250